sensor_id;sensor_type;location;lat;lon;timestamp;P1;durP1;ratioP1;P2;durP2;ratioP2
14203;SDS011;7185;51.854;6.622;2023-09-12T00:05:04;28.55;;;16.55;;
14203;SDS011;7185;51.854;6.622;2023-09-12T00:07:36;31.52;;;17.98;;
14203;SDS011;7185;51.854;6.622;2023-09-12T00:17:05;26.40;;;16.02;;
14203;SDS011;7185;51.854;6.622;2023-09-12T00:19:37;30.85;;;17.58;;
14203;SDS011;7185;51.854;6.622;2023-09-12T00:22:10;25.25;;;16.27;;
14203;SDS011;7185;51.854;6.622;2023-09-12T00:24:41;25.77;;;15.13;;
14203;SDS011;7185;51.854;6.622;2023-09-12T00:27:13;23.92;;;15.00;;
14203;SDS011;7185;51.854;6.622;2023-09-12T00:29:48;24.23;;;16.02;;
14203;SDS011;7185;51.854;6.622;2023-09-12T00:32:19;25.60;;;15.40;;
14203;SDS011;7185;51.854;6.622;2023-09-12T00:34:51;22.38;;;15.88;;
14203;SDS011;7185;51.854;6.622;2023-09-12T00:37:24;24.63;;;16.48;;
14203;SDS011;7185;51.854;6.622;2023-09-12T00:39:55;26.67;;;15.73;;
14203;SDS011;7185;51.854;6.622;2023-09-12T00:42:27;29.42;;;18.80;;
14203;SDS011;7185;51.854;6.622;2023-09-12T00:44:58;27.30;;;16.40;;
14203;SDS011;7185;51.854;6.622;2023-09-12T00:47:30;25.55;;;17.35;;
14203;SDS011;7185;51.854;6.622;2023-09-12T00:50:02;27.73;;;17.58;;
14203;SDS011;7185;51.854;6.622;2023-09-12T00:52:37;30.77;;;17.42;;
14203;SDS011;7185;51.854;6.622;2023-09-12T00:55:10;27.85;;;16.67;;
14203;SDS011;7185;51.854;6.622;2023-09-12T00:57:42;26.70;;;17.88;;
14203;SDS011;7185;51.854;6.622;2023-09-12T01:00:14;23.48;;;16.88;;
14203;SDS011;7185;51.854;6.622;2023-09-12T01:02:47;25.40;;;17.42;;
14203;SDS011;7185;51.854;6.622;2023-09-12T01:05:20;26.75;;;18.02;;
14203;SDS011;7185;51.854;6.622;2023-09-12T01:08:06;27.67;;;16.75;;
14203;SDS011;7185;51.854;6.622;2023-09-12T01:11:01;29.85;;;18.85;;
14203;SDS011;7185;51.854;6.622;2023-09-12T01:14:16;28.27;;;18.58;;
14203;SDS011;7185;51.854;6.622;2023-09-12T01:17:12;31.00;;;18.25;;
14203;SDS011;7185;51.854;6.622;2023-09-12T01:19:44;24.55;;;17.13;;
14203;SDS011;7185;51.854;6.622;2023-09-12T01:22:21;27.90;;;17.33;;
14203;SDS011;7185;51.854;6.622;2023-09-12T01:25:07;29.23;;;18.13;;
14203;SDS011;7185;51.854;6.622;2023-09-12T01:27:41;28.27;;;18.45;;
14203;SDS011;7185;51.854;6.622;2023-09-12T01:30:13;26.90;;;17.73;;
14203;SDS011;7185;51.854;6.622;2023-09-12T01:32:48;28.70;;;17.77;;
14203;SDS011;7185;51.854;6.622;2023-09-12T01:35:20;26.80;;;17.17;;
14203;SDS011;7185;51.854;6.622;2023-09-12T01:37:51;24.48;;;16.90;;
14203;SDS011;7185;51.854;6.622;2023-09-12T01:40:27;30.13;;;17.98;;
14203;SDS011;7185;51.854;6.622;2023-09-12T01:43:05;24.85;;;16.00;;
14203;SDS011;7185;51.854;6.622;2023-09-12T01:45:37;26.30;;;16.73;;
14203;SDS011;7185;51.854;6.622;2023-09-12T01:48:09;24.10;;;14.70;;
14203;SDS011;7185;51.854;6.622;2023-09-12T01:50:42;25.70;;;16.17;;
14203;SDS011;7185;51.854;6.622;2023-09-12T01:53:15;24.73;;;15.45;;
14203;SDS011;7185;51.854;6.622;2023-09-12T01:55:47;24.73;;;15.40;;
14203;SDS011;7185;51.854;6.622;2023-09-12T01:58:20;27.42;;;16.40;;
14203;SDS011;7185;51.854;6.622;2023-09-12T02:00:52;23.02;;;15.07;;
14203;SDS011;7185;51.854;6.622;2023-09-12T02:03:24;25.70;;;15.88;;
14203;SDS011;7185;51.854;6.622;2023-09-12T02:05:55;21.08;;;15.05;;
14203;SDS011;7185;51.854;6.622;2023-09-12T02:11:01;20.58;;;13.60;;
14203;SDS011;7185;51.854;6.622;2023-09-12T02:13:34;21.60;;;15.13;;
14203;SDS011;7185;51.854;6.622;2023-09-12T02:16:06;24.40;;;15.35;;
14203;SDS011;7185;51.854;6.622;2023-09-12T02:18:37;23.95;;;14.43;;
14203;SDS011;7185;51.854;6.622;2023-09-12T02:21:09;27.33;;;16.30;;
14203;SDS011;7185;51.854;6.622;2023-09-12T02:23:40;24.05;;;15.52;;
14203;SDS011;7185;51.854;6.622;2023-09-12T02:28:48;23.50;;;16.08;;
14203;SDS011;7185;51.854;6.622;2023-09-12T02:31:20;28.73;;;17.77;;
14203;SDS011;7185;51.854;6.622;2023-09-12T02:33:51;25.58;;;16.60;;
14203;SDS011;7185;51.854;6.622;2023-09-12T02:36:27;26.50;;;17.15;;
14203;SDS011;7185;51.854;6.622;2023-09-12T02:38:59;23.67;;;15.80;;
14203;SDS011;7185;51.854;6.622;2023-09-12T02:41:31;27.77;;;17.05;;
14203;SDS011;7185;51.854;6.622;2023-09-12T02:44:04;21.80;;;15.18;;
14203;SDS011;7185;51.854;6.622;2023-09-12T02:46:36;27.05;;;17.15;;
14203;SDS011;7185;51.854;6.622;2023-09-12T02:49:07;23.98;;;15.63;;
14203;SDS011;7185;51.854;6.622;2023-09-12T02:51:39;24.20;;;16.95;;
14203;SDS011;7185;51.854;6.622;2023-09-12T02:54:11;24.88;;;15.57;;
14203;SDS011;7185;51.854;6.622;2023-09-12T02:56:42;22.35;;;15.48;;
14203;SDS011;7185;51.854;6.622;2023-09-12T02:59:15;25.77;;;16.33;;
14203;SDS011;7185;51.854;6.622;2023-09-12T03:01:47;23.65;;;16.20;;
14203;SDS011;7185;51.854;6.622;2023-09-12T03:04:19;23.35;;;15.52;;
14203;SDS011;7185;51.854;6.622;2023-09-12T03:06:50;23.52;;;15.70;;
14203;SDS011;7185;51.854;6.622;2023-09-12T03:09:22;28.75;;;17.13;;
14203;SDS011;7185;51.854;6.622;2023-09-12T03:11:54;26.17;;;17.20;;
14203;SDS011;7185;51.854;6.622;2023-09-12T03:14:28;32.08;;;18.40;;
14203;SDS011;7185;51.854;6.622;2023-09-12T03:17:00;26.38;;;18.33;;
14203;SDS011;7185;51.854;6.622;2023-09-12T03:19:31;28.63;;;19.67;;
14203;SDS011;7185;51.854;6.622;2023-09-12T03:22:03;33.25;;;20.05;;
14203;SDS011;7185;51.854;6.622;2023-09-12T03:24:34;28.25;;;18.83;;
14203;SDS011;7185;51.854;6.622;2023-09-12T03:27:06;29.45;;;19.25;;
14203;SDS011;7185;51.854;6.622;2023-09-12T03:29:39;28.95;;;18.60;;
14203;SDS011;7185;51.854;6.622;2023-09-12T03:32:10;26.13;;;18.40;;
14203;SDS011;7185;51.854;6.622;2023-09-12T03:34:42;32.10;;;19.63;;
14203;SDS011;7185;51.854;6.622;2023-09-12T03:37:14;29.40;;;18.20;;
14203;SDS011;7185;51.854;6.622;2023-09-12T03:39:45;31.25;;;19.67;;
14203;SDS011;7185;51.854;6.622;2023-09-12T03:42:17;31.25;;;18.98;;
14203;SDS011;7185;51.854;6.622;2023-09-12T03:44:50;26.95;;;19.15;;
14203;SDS011;7185;51.854;6.622;2023-09-12T03:47:21;27.50;;;17.75;;
14203;SDS011;7185;51.854;6.622;2023-09-12T03:49:55;30.27;;;19.45;;
14203;SDS011;7185;51.854;6.622;2023-09-12T03:52:27;27.17;;;18.67;;
14203;SDS011;7185;51.854;6.622;2023-09-12T03:54:58;29.65;;;18.02;;
14203;SDS011;7185;51.854;6.622;2023-09-12T03:57:31;31.02;;;19.17;;
14203;SDS011;7185;51.854;6.622;2023-09-12T04:00:05;26.92;;;18.35;;
14203;SDS011;7185;51.854;6.622;2023-09-12T04:02:37;28.95;;;19.17;;
14203;SDS011;7185;51.854;6.622;2023-09-12T04:05:08;33.72;;;18.77;;
14203;SDS011;7185;51.854;6.622;2023-09-12T04:07:40;31.20;;;19.27;;
14203;SDS011;7185;51.854;6.622;2023-09-12T04:10:23;28.92;;;19.90;;
14203;SDS011;7185;51.854;6.622;2023-09-12T04:12:55;31.70;;;20.33;;
14203;SDS011;7185;51.854;6.622;2023-09-12T04:15:43;30.00;;;20.25;;
14203;SDS011;7185;51.854;6.622;2023-09-12T04:18:34;24.02;;;17.15;;
14203;SDS011;7185;51.854;6.622;2023-09-12T04:21:06;33.20;;;19.85;;
14203;SDS011;7185;51.854;6.622;2023-09-12T04:23:54;29.65;;;18.77;;
14203;SDS011;7185;51.854;6.622;2023-09-12T04:26:26;29.85;;;19.92;;
14203;SDS011;7185;51.854;6.622;2023-09-12T04:31:38;29.45;;;18.02;;
14203;SDS011;7185;51.854;6.622;2023-09-12T04:34:10;29.23;;;19.33;;
14203;SDS011;7185;51.854;6.622;2023-09-12T04:36:42;30.13;;;19.17;;
14203;SDS011;7185;51.854;6.622;2023-09-12T04:39:14;28.52;;;19.27;;
14203;SDS011;7185;51.854;6.622;2023-09-12T04:41:45;28.27;;;19.65;;
14203;SDS011;7185;51.854;6.622;2023-09-12T04:44:17;26.73;;;18.15;;
14203;SDS011;7185;51.854;6.622;2023-09-12T04:46:50;30.73;;;18.95;;
14203;SDS011;7185;51.854;6.622;2023-09-12T04:49:21;27.35;;;19.30;;
14203;SDS011;7185;51.854;6.622;2023-09-12T04:51:53;29.33;;;18.45;;
14203;SDS011;7185;51.854;6.622;2023-09-12T04:54:25;34.35;;;19.63;;
14203;SDS011;7185;51.854;6.622;2023-09-12T04:56:56;26.88;;;18.70;;
14203;SDS011;7185;51.854;6.622;2023-09-12T04:59:28;28.25;;;18.60;;
14203;SDS011;7185;51.854;6.622;2023-09-12T05:02:01;36.08;;;20.10;;
14203;SDS011;7185;51.854;6.622;2023-09-12T05:04:35;35.35;;;22.65;;
14203;SDS011;7185;51.854;6.622;2023-09-12T05:07:07;30.77;;;19.60;;
14203;SDS011;7185;51.854;6.622;2023-09-12T05:09:39;31.75;;;20.02;;
14203;SDS011;7185;51.854;6.622;2023-09-12T05:12:10;37.58;;;20.92;;
14203;SDS011;7185;51.854;6.622;2023-09-12T05:14:41;34.45;;;20.02;;
14203;SDS011;7185;51.854;6.622;2023-09-12T05:17:14;37.70;;;21.70;;
14203;SDS011;7185;51.854;6.622;2023-09-12T05:19:46;31.33;;;19.92;;
14203;SDS011;7185;51.854;6.622;2023-09-12T05:22:17;30.98;;;19.45;;
14203;SDS011;7185;51.854;6.622;2023-09-12T05:24:50;32.55;;;19.63;;
14203;SDS011;7185;51.854;6.622;2023-09-12T05:27:21;33.60;;;19.02;;
14203;SDS011;7185;51.854;6.622;2023-09-12T05:29:53;33.20;;;20.02;;
14203;SDS011;7185;51.854;6.622;2023-09-12T05:32:26;30.13;;;18.08;;
14203;SDS011;7185;51.854;6.622;2023-09-12T05:34:57;29.65;;;19.08;;
14203;SDS011;7185;51.854;6.622;2023-09-12T05:37:29;27.02;;;19.38;;
14203;SDS011;7185;51.854;6.622;2023-09-12T05:40:00;34.47;;;21.20;;
14203;SDS011;7185;51.854;6.622;2023-09-12T05:42:33;33.22;;;21.35;;
14203;SDS011;7185;51.854;6.622;2023-09-12T05:45:05;30.30;;;20.50;;
14203;SDS011;7185;51.854;6.622;2023-09-12T05:47:39;32.00;;;20.20;;
14203;SDS011;7185;51.854;6.622;2023-09-12T05:50:20;33.65;;;22.00;;
14203;SDS011;7185;51.854;6.622;2023-09-12T05:52:52;35.63;;;22.38;;
14203;SDS011;7185;51.854;6.622;2023-09-12T05:55:24;37.97;;;23.08;;
14203;SDS011;7185;51.854;6.622;2023-09-12T05:57:55;36.03;;;22.85;;
14203;SDS011;7185;51.854;6.622;2023-09-12T06:00:27;32.70;;;21.15;;
14203;SDS011;7185;51.854;6.622;2023-09-12T06:03:07;35.03;;;22.08;;
14203;SDS011;7185;51.854;6.622;2023-09-12T06:05:42;33.72;;;21.58;;
14203;SDS011;7185;51.854;6.622;2023-09-12T06:08:14;35.38;;;22.75;;
14203;SDS011;7185;51.854;6.622;2023-09-12T06:10:46;35.13;;;23.65;;
14203;SDS011;7185;51.854;6.622;2023-09-12T06:13:19;37.00;;;22.92;;
14203;SDS011;7185;51.854;6.622;2023-09-12T06:15:50;38.63;;;23.45;;
14203;SDS011;7185;51.854;6.622;2023-09-12T06:18:26;42.78;;;24.08;;
14203;SDS011;7185;51.854;6.622;2023-09-12T06:21:06;37.80;;;25.02;;
14203;SDS011;7185;51.854;6.622;2023-09-12T06:23:39;45.33;;;25.00;;
14203;SDS011;7185;51.854;6.622;2023-09-12T06:26:14;43.72;;;26.45;;
14203;SDS011;7185;51.854;6.622;2023-09-12T06:28:48;45.78;;;27.15;;
14203;SDS011;7185;51.854;6.622;2023-09-12T06:31:20;47.80;;;28.80;;
14203;SDS011;7185;51.854;6.622;2023-09-12T06:34:00;50.00;;;28.23;;
14203;SDS011;7185;51.854;6.622;2023-09-12T06:36:34;49.47;;;29.02;;
14203;SDS011;7185;51.854;6.622;2023-09-12T06:39:06;54.45;;;31.42;;
14203;SDS011;7185;51.854;6.622;2023-09-12T06:41:38;51.35;;;27.73;;
14203;SDS011;7185;51.854;6.622;2023-09-12T06:44:09;50.95;;;30.27;;
14203;SDS011;7185;51.854;6.622;2023-09-12T06:46:41;52.55;;;29.17;;
14203;SDS011;7185;51.854;6.622;2023-09-12T06:49:17;57.00;;;31.38;;
14203;SDS011;7185;51.854;6.622;2023-09-12T06:51:51;60.17;;;33.58;;
14203;SDS011;7185;51.854;6.622;2023-09-12T06:54:22;59.50;;;34.45;;
14203;SDS011;7185;51.854;6.622;2023-09-12T06:56:57;66.82;;;35.95;;
14203;SDS011;7185;51.854;6.622;2023-09-12T06:59:29;66.85;;;35.65;;
14203;SDS011;7185;51.854;6.622;2023-09-12T07:02:06;55.72;;;32.40;;
14203;SDS011;7185;51.854;6.622;2023-09-12T07:04:44;62.47;;;34.10;;
14203;SDS011;7185;51.854;6.622;2023-09-12T07:07:22;62.63;;;33.80;;
14203;SDS011;7185;51.854;6.622;2023-09-12T07:09:54;60.22;;;31.75;;
14203;SDS011;7185;51.854;6.622;2023-09-12T07:12:28;56.08;;;32.35;;
14203;SDS011;7185;51.854;6.622;2023-09-12T07:15:04;54.03;;;30.70;;
14203;SDS011;7185;51.854;6.622;2023-09-12T07:17:44;49.67;;;28.88;;
14203;SDS011;7185;51.854;6.622;2023-09-12T07:20:24;54.47;;;30.23;;
14203;SDS011;7185;51.854;6.622;2023-09-12T07:23:01;51.47;;;28.92;;
14203;SDS011;7185;51.854;6.622;2023-09-12T07:25:37;46.05;;;27.80;;
14203;SDS011;7185;51.854;6.622;2023-09-12T07:28:09;51.03;;;29.75;;
14203;SDS011;7185;51.854;6.622;2023-09-12T07:30:40;48.47;;;28.02;;
14203;SDS011;7185;51.854;6.622;2023-09-12T07:33:14;48.33;;;28.02;;
14203;SDS011;7185;51.854;6.622;2023-09-12T07:35:48;48.45;;;29.20;;
14203;SDS011;7185;51.854;6.622;2023-09-12T07:38:20;44.60;;;27.10;;
14203;SDS011;7185;51.854;6.622;2023-09-12T07:40:51;43.17;;;25.95;;
14203;SDS011;7185;51.854;6.622;2023-09-12T07:43:23;43.08;;;26.42;;
14203;SDS011;7185;51.854;6.622;2023-09-12T07:45:55;42.65;;;26.65;;
14203;SDS011;7185;51.854;6.622;2023-09-12T07:48:26;41.63;;;26.42;;
14203;SDS011;7185;51.854;6.622;2023-09-12T07:50:59;47.67;;;29.75;;
14203;SDS011;7185;51.854;6.622;2023-09-12T07:53:31;43.20;;;27.75;;
14203;SDS011;7185;51.854;6.622;2023-09-12T07:56:03;42.38;;;27.23;;
14203;SDS011;7185;51.854;6.622;2023-09-12T07:58:34;45.10;;;27.67;;
14203;SDS011;7185;51.854;6.622;2023-09-12T08:01:06;43.65;;;26.13;;
14203;SDS011;7185;51.854;6.622;2023-09-12T08:03:39;44.80;;;27.80;;
14203;SDS011;7185;51.854;6.622;2023-09-12T08:06:12;45.97;;;26.58;;
14203;SDS011;7185;51.854;6.622;2023-09-12T08:08:43;41.88;;;25.60;;
14203;SDS011;7185;51.854;6.622;2023-09-12T08:11:15;48.83;;;27.65;;
14203;SDS011;7185;51.854;6.622;2023-09-12T08:13:48;44.58;;;28.42;;
14203;SDS011;7185;51.854;6.622;2023-09-12T08:16:20;44.83;;;28.63;;
14203;SDS011;7185;51.854;6.622;2023-09-12T08:18:54;48.03;;;28.63;;
14203;SDS011;7185;51.854;6.622;2023-09-12T08:21:27;40.20;;;25.60;;
14203;SDS011;7185;51.854;6.622;2023-09-12T08:23:59;41.20;;;26.23;;
14203;SDS011;7185;51.854;6.622;2023-09-12T08:26:38;40.38;;;25.80;;
14203;SDS011;7185;51.854;6.622;2023-09-12T08:29:10;42.92;;;27.55;;
14203;SDS011;7185;51.854;6.622;2023-09-12T08:31:41;44.22;;;28.25;;
14203;SDS011;7185;51.854;6.622;2023-09-12T08:34:17;42.40;;;27.50;;
14203;SDS011;7185;51.854;6.622;2023-09-12T08:36:50;45.40;;;26.98;;
14203;SDS011;7185;51.854;6.622;2023-09-12T08:39:22;40.78;;;27.02;;
14203;SDS011;7185;51.854;6.622;2023-09-12T08:41:54;43.63;;;27.92;;
14203;SDS011;7185;51.854;6.622;2023-09-12T08:44:26;47.83;;;28.58;;
14203;SDS011;7185;51.854;6.622;2023-09-12T08:46:58;42.33;;;28.60;;
14203;SDS011;7185;51.854;6.622;2023-09-12T08:49:31;38.78;;;25.98;;
14203;SDS011;7185;51.854;6.622;2023-09-12T08:52:05;40.28;;;26.02;;
14203;SDS011;7185;51.854;6.622;2023-09-12T08:54:36;39.55;;;25.27;;
14203;SDS011;7185;51.854;6.622;2023-09-12T08:57:08;35.28;;;24.02;;
14203;SDS011;7185;51.854;6.622;2023-09-12T08:59:42;38.65;;;25.73;;
14203;SDS011;7185;51.854;6.622;2023-09-12T09:02:14;37.63;;;25.27;;
14203;SDS011;7185;51.854;6.622;2023-09-12T09:04:50;35.90;;;25.52;;
14203;SDS011;7185;51.854;6.622;2023-09-12T09:07:24;35.05;;;26.00;;
14203;SDS011;7185;51.854;6.622;2023-09-12T09:10:00;33.35;;;24.63;;
14203;SDS011;7185;51.854;6.622;2023-09-12T09:12:34;34.10;;;22.67;;
14203;SDS011;7185;51.854;6.622;2023-09-12T09:15:21;33.38;;;22.70;;
14203;SDS011;7185;51.854;6.622;2023-09-12T09:17:53;33.05;;;22.92;;
14203;SDS011;7185;51.854;6.622;2023-09-12T09:20:26;34.83;;;23.73;;
14203;SDS011;7185;51.854;6.622;2023-09-12T09:22:59;32.03;;;22.90;;
14203;SDS011;7185;51.854;6.622;2023-09-12T09:25:31;35.60;;;24.42;;
14203;SDS011;7185;51.854;6.622;2023-09-12T09:28:03;36.45;;;23.13;;
14203;SDS011;7185;51.854;6.622;2023-09-12T09:30:39;27.60;;;20.40;;
14203;SDS011;7185;51.854;6.622;2023-09-12T09:33:10;30.83;;;21.73;;
14203;SDS011;7185;51.854;6.622;2023-09-12T09:35:42;29.75;;;21.88;;
14203;SDS011;7185;51.854;6.622;2023-09-12T09:38:15;29.55;;;20.20;;
14203;SDS011;7185;51.854;6.622;2023-09-12T09:40:49;39.88;;;24.75;;
14203;SDS011;7185;51.854;6.622;2023-09-12T09:43:21;31.73;;;23.38;;
14203;SDS011;7185;51.854;6.622;2023-09-12T09:45:55;30.13;;;22.00;;
14203;SDS011;7185;51.854;6.622;2023-09-12T09:48:26;36.63;;;25.08;;
14203;SDS011;7185;51.854;6.622;2023-09-12T09:51:00;39.63;;;27.52;;
14203;SDS011;7185;51.854;6.622;2023-09-12T09:53:33;35.95;;;24.17;;
14203;SDS011;7185;51.854;6.622;2023-09-12T09:56:07;41.85;;;26.75;;
14203;SDS011;7185;51.854;6.622;2023-09-12T09:58:47;37.92;;;27.55;;
14203;SDS011;7185;51.854;6.622;2023-09-12T10:01:19;34.70;;;26.25;;
14203;SDS011;7185;51.854;6.622;2023-09-12T10:03:51;42.63;;;28.90;;
14203;SDS011;7185;51.854;6.622;2023-09-12T10:06:23;44.08;;;27.17;;
14203;SDS011;7185;51.854;6.622;2023-09-12T10:08:56;42.83;;;27.65;;
14203;SDS011;7185;51.854;6.622;2023-09-12T10:11:29;41.03;;;27.50;;
14203;SDS011;7185;51.854;6.622;2023-09-12T10:14:04;38.45;;;25.63;;
14203;SDS011;7185;51.854;6.622;2023-09-12T10:16:38;39.13;;;27.05;;
14203;SDS011;7185;51.854;6.622;2023-09-12T10:19:15;37.25;;;24.10;;
14203;SDS011;7185;51.854;6.622;2023-09-12T10:21:48;34.38;;;24.20;;
14203;SDS011;7185;51.854;6.622;2023-09-12T10:24:21;32.20;;;22.98;;
14203;SDS011;7185;51.854;6.622;2023-09-12T10:26:53;29.38;;;22.90;;
14203;SDS011;7185;51.854;6.622;2023-09-12T10:29:25;28.20;;;20.95;;
14203;SDS011;7185;51.854;6.622;2023-09-12T10:31:56;25.92;;;20.13;;
14203;SDS011;7185;51.854;6.622;2023-09-12T10:34:28;24.42;;;17.92;;
14203;SDS011;7185;51.854;6.622;2023-09-12T10:37:01;22.90;;;17.13;;
14203;SDS011;7185;51.854;6.622;2023-09-12T10:39:36;23.92;;;16.50;;
14203;SDS011;7185;51.854;6.622;2023-09-12T10:42:08;21.90;;;14.90;;
14203;SDS011;7185;51.854;6.622;2023-09-12T10:44:39;17.08;;;13.98;;
14203;SDS011;7185;51.854;6.622;2023-09-12T10:47:11;18.70;;;13.68;;
14203;SDS011;7185;51.854;6.622;2023-09-12T10:49:43;16.27;;;12.15;;
14203;SDS011;7185;51.854;6.622;2023-09-12T10:52:23;18.02;;;13.70;;
14203;SDS011;7185;51.854;6.622;2023-09-12T10:54:56;18.20;;;13.00;;
14203;SDS011;7185;51.854;6.622;2023-09-12T10:57:27;17.15;;;12.13;;
14203;SDS011;7185;51.854;6.622;2023-09-12T11:00:12;15.88;;;12.50;;
14203;SDS011;7185;51.854;6.622;2023-09-12T11:02:44;13.63;;;10.07;;
14203;SDS011;7185;51.854;6.622;2023-09-12T11:10:37;13.45;;;10.10;;
14203;SDS011;7185;51.854;6.622;2023-09-12T11:13:10;14.43;;;10.32;;
14203;SDS011;7185;51.854;6.622;2023-09-12T11:18:34;11.43;;;8.63;;
14203;SDS011;7185;51.854;6.622;2023-09-12T11:23:53;11.95;;;8.02;;
14203;SDS011;7185;51.854;6.622;2023-09-12T11:26:26;12.63;;;8.98;;
14203;SDS011;7185;51.854;6.622;2023-09-12T11:29:00;12.68;;;8.13;;
14203;SDS011;7185;51.854;6.622;2023-09-12T11:31:41;9.13;;;7.93;;
14203;SDS011;7185;51.854;6.622;2023-09-12T11:34:22;7.97;;;6.30;;
14203;SDS011;7185;51.854;6.622;2023-09-12T11:36:57;10.23;;;7.13;;
14203;SDS011;7185;51.854;6.622;2023-09-12T11:39:31;10.43;;;7.00;;
14203;SDS011;7185;51.854;6.622;2023-09-12T11:42:04;10.73;;;7.22;;
14203;SDS011;7185;51.854;6.622;2023-09-12T11:44:39;9.70;;;6.75;;
14203;SDS011;7185;51.854;6.622;2023-09-12T11:47:10;8.65;;;6.35;;
14203;SDS011;7185;51.854;6.622;2023-09-12T11:49:43;7.47;;;5.95;;
14203;SDS011;7185;51.854;6.622;2023-09-12T11:52:15;8.88;;;6.80;;
14203;SDS011;7185;51.854;6.622;2023-09-12T11:54:47;8.05;;;6.88;;
14203;SDS011;7185;51.854;6.622;2023-09-12T11:57:20;10.57;;;7.93;;
14203;SDS011;7185;51.854;6.622;2023-09-12T11:59:52;10.30;;;7.07;;
14203;SDS011;7185;51.854;6.622;2023-09-12T12:02:24;9.52;;;6.72;;
14203;SDS011;7185;51.854;6.622;2023-09-12T12:04:56;9.55;;;6.22;;
14203;SDS011;7185;51.854;6.622;2023-09-12T12:07:29;12.30;;;7.03;;
14203;SDS011;7185;51.854;6.622;2023-09-12T12:10:01;10.52;;;7.60;;
14203;SDS011;7185;51.854;6.622;2023-09-12T12:12:35;9.10;;;8.05;;
14203;SDS011;7185;51.854;6.622;2023-09-12T12:15:09;12.48;;;8.60;;
14203;SDS011;7185;51.854;6.622;2023-09-12T12:17:41;13.18;;;9.50;;
14203;SDS011;7185;51.854;6.622;2023-09-12T12:20:13;11.77;;;8.88;;
14203;SDS011;7185;51.854;6.622;2023-09-12T12:22:45;11.82;;;9.95;;
14203;SDS011;7185;51.854;6.622;2023-09-12T12:25:17;11.98;;;9.52;;
14203;SDS011;7185;51.854;6.622;2023-09-12T12:27:49;10.38;;;9.20;;
14203;SDS011;7185;51.854;6.622;2023-09-12T12:30:21;11.65;;;8.50;;
14203;SDS011;7185;51.854;6.622;2023-09-12T12:32:53;8.73;;;7.82;;
14203;SDS011;7185;51.854;6.622;2023-09-12T12:35:24;10.98;;;8.05;;
14203;SDS011;7185;51.854;6.622;2023-09-12T12:37:56;10.07;;;7.70;;
14203;SDS011;7185;51.854;6.622;2023-09-12T12:40:28;8.43;;;6.35;;
14203;SDS011;7185;51.854;6.622;2023-09-12T12:43:01;9.05;;;6.50;;
14203;SDS011;7185;51.854;6.622;2023-09-12T12:45:32;9.52;;;7.80;;
14203;SDS011;7185;51.854;6.622;2023-09-12T12:48:04;9.57;;;6.47;;
14203;SDS011;7185;51.854;6.622;2023-09-12T12:50:36;7.97;;;5.90;;
14203;SDS011;7185;51.854;6.622;2023-09-12T12:53:09;8.63;;;4.95;;
14203;SDS011;7185;51.854;6.622;2023-09-12T12:55:41;6.93;;;5.53;;
14203;SDS011;7185;51.854;6.622;2023-09-12T12:58:14;9.35;;;6.28;;
14203;SDS011;7185;51.854;6.622;2023-09-12T13:00:46;8.35;;;5.70;;
14203;SDS011;7185;51.854;6.622;2023-09-12T13:03:18;7.88;;;5.55;;
14203;SDS011;7185;51.854;6.622;2023-09-12T13:05:50;7.53;;;4.78;;
14203;SDS011;7185;51.854;6.622;2023-09-12T13:08:21;7.80;;;4.80;;
14203;SDS011;7185;51.854;6.622;2023-09-12T13:10:52;6.13;;;4.13;;
14203;SDS011;7185;51.854;6.622;2023-09-12T13:13:26;8.73;;;5.18;;
14203;SDS011;7185;51.854;6.622;2023-09-12T13:15:58;5.93;;;4.80;;
14203;SDS011;7185;51.854;6.622;2023-09-12T13:18:29;6.82;;;5.35;;
14203;SDS011;7185;51.854;6.622;2023-09-12T13:21:01;7.10;;;5.45;;
14203;SDS011;7185;51.854;6.622;2023-09-12T13:23:33;10.35;;;5.60;;
14203;SDS011;7185;51.854;6.622;2023-09-12T13:26:06;8.82;;;5.63;;
14203;SDS011;7185;51.854;6.622;2023-09-12T13:28:39;6.90;;;5.75;;
14203;SDS011;7185;51.854;6.622;2023-09-12T13:31:11;10.20;;;6.00;;
14203;SDS011;7185;51.854;6.622;2023-09-12T13:33:43;9.48;;;6.22;;
14203;SDS011;7185;51.854;6.622;2023-09-12T13:36:14;7.25;;;5.63;;
14203;SDS011;7185;51.854;6.622;2023-09-12T13:38:46;7.35;;;5.43;;
14203;SDS011;7185;51.854;6.622;2023-09-12T13:41:20;6.87;;;5.07;;
14203;SDS011;7185;51.854;6.622;2023-09-12T13:43:53;8.68;;;4.80;;
14203;SDS011;7185;51.854;6.622;2023-09-12T13:46:25;8.20;;;5.05;;
14203;SDS011;7185;51.854;6.622;2023-09-12T13:48:57;8.02;;;5.40;;
14203;SDS011;7185;51.854;6.622;2023-09-12T13:51:30;8.63;;;4.57;;
14203;SDS011;7185;51.854;6.622;2023-09-12T13:54:02;6.05;;;4.72;;
14203;SDS011;7185;51.854;6.622;2023-09-12T13:56:34;7.20;;;4.55;;
14203;SDS011;7185;51.854;6.622;2023-09-12T13:59:07;5.68;;;4.53;;
14203;SDS011;7185;51.854;6.622;2023-09-12T14:01:39;6.72;;;4.13;;
14203;SDS011;7185;51.854;6.622;2023-09-12T14:04:11;7.57;;;4.25;;
14203;SDS011;7185;51.854;6.622;2023-09-12T14:06:43;6.97;;;4.80;;
14203;SDS011;7185;51.854;6.622;2023-09-12T14:09:14;6.30;;;4.82;;
14203;SDS011;7185;51.854;6.622;2023-09-12T14:11:46;6.32;;;4.32;;
14203;SDS011;7185;51.854;6.622;2023-09-12T14:14:19;9.10;;;4.93;;
14203;SDS011;7185;51.854;6.622;2023-09-12T14:16:51;7.50;;;5.47;;
14203;SDS011;7185;51.854;6.622;2023-09-12T14:19:22;8.82;;;5.13;;
14203;SDS011;7185;51.854;6.622;2023-09-12T14:21:54;7.25;;;4.80;;
14203;SDS011;7185;51.854;6.622;2023-09-12T14:24:25;7.70;;;4.82;;
14203;SDS011;7185;51.854;6.622;2023-09-12T14:26:57;6.40;;;4.53;;
14203;SDS011;7185;51.854;6.622;2023-09-12T14:29:29;6.03;;;4.93;;
14203;SDS011;7185;51.854;6.622;2023-09-12T14:32:01;7.13;;;4.40;;
14203;SDS011;7185;51.854;6.622;2023-09-12T14:34:33;5.20;;;4.45;;
14203;SDS011;7185;51.854;6.622;2023-09-12T14:37:05;8.75;;;5.28;;
14203;SDS011;7185;51.854;6.622;2023-09-12T14:39:36;7.85;;;5.38;;
14203;SDS011;7185;51.854;6.622;2023-09-12T14:42:08;11.10;;;6.43;;
14203;SDS011;7185;51.854;6.622;2023-09-12T14:44:40;8.98;;;5.32;;
14203;SDS011;7185;51.854;6.622;2023-09-12T14:47:12;6.15;;;5.20;;
14203;SDS011;7185;51.854;6.622;2023-09-12T14:49:43;9.23;;;4.85;;
14203;SDS011;7185;51.854;6.622;2023-09-12T14:52:15;7.45;;;4.10;;
14203;SDS011;7185;51.854;6.622;2023-09-12T14:54:46;6.50;;;4.55;;
14203;SDS011;7185;51.854;6.622;2023-09-12T14:57:18;7.32;;;5.80;;
14203;SDS011;7185;51.854;6.622;2023-09-12T14:59:51;6.93;;;5.20;;
14203;SDS011;7185;51.854;6.622;2023-09-12T15:02:24;8.88;;;5.03;;
14203;SDS011;7185;51.854;6.622;2023-09-12T15:05:01;7.95;;;5.38;;
14203;SDS011;7185;51.854;6.622;2023-09-12T15:07:33;8.68;;;5.25;;
14203;SDS011;7185;51.854;6.622;2023-09-12T15:10:07;8.23;;;6.30;;
14203;SDS011;7185;51.854;6.622;2023-09-12T15:12:39;8.73;;;5.35;;
14203;SDS011;7185;51.854;6.622;2023-09-12T15:15:12;8.43;;;4.75;;
14203;SDS011;7185;51.854;6.622;2023-09-12T15:17:44;6.45;;;4.93;;
14203;SDS011;7185;51.854;6.622;2023-09-12T15:20:16;7.40;;;4.88;;
14203;SDS011;7185;51.854;6.622;2023-09-12T15:22:47;7.60;;;4.90;;
14203;SDS011;7185;51.854;6.622;2023-09-12T15:25:18;6.55;;;5.00;;
14203;SDS011;7185;51.854;6.622;2023-09-12T15:27:50;7.50;;;4.50;;
14203;SDS011;7185;51.854;6.622;2023-09-12T15:30:23;7.15;;;4.65;;
14203;SDS011;7185;51.854;6.622;2023-09-12T15:32:55;7.03;;;3.95;;
14203;SDS011;7185;51.854;6.622;2023-09-12T15:35:26;5.70;;;4.10;;
14203;SDS011;7185;51.854;6.622;2023-09-12T15:37:58;6.35;;;4.55;;
14203;SDS011;7185;51.854;6.622;2023-09-12T15:40:31;5.97;;;3.80;;
14203;SDS011;7185;51.854;6.622;2023-09-12T15:43:02;6.47;;;4.20;;
14203;SDS011;7185;51.854;6.622;2023-09-12T15:45:35;7.10;;;4.00;;